Terminal Aerodrome Forecast
Issued by NWS

Home | Current Version | Previous Version | Text Only | Print | Product List | Glossary On
Versions: 1 2 3 4 5 6 7 8 9 10 11 12 13 14 15 16 17 18 19 20 21 22 23 24 25
000
FTUS43 KDLH 010540
TAFHYR
TAF
KHYR 010540Z 0106/0206 20005KT 6SM HZ BKN035
      TEMPO 0109/0113 1 1/2SM BR BKN005
     FM011300 22009KT P6SM VCSH SCT020 BKN120
     FM011600 24010G15KT P6SM FEW040 BKN150
     FM020000 18003KT P6SM SCT030 SCT120=

USA.gov is the U.S. government's official web portal to all federal, state and local government web resources and services.